« Back
NWS Peachtree City, Ga » Text Product » CSG Terminal Aerodrome Forecast


Printer-friendly Version
Current Version              Previous Versions:   1  2  3  4  5  6  7  8  9  

Terminal Aerodrome Forecast

220
FTUS42 KFFC 301100
TAFCSG
TAF
KCSG 301121Z 3012/0112 06004KT P6SM BKN015
      TEMPO 3012/3013 BKN008
     FM301400 06005KT 6SM BR SCT015
     FM301700 06005KT P6SM SCT040
     FM302200 VRB03KT P6SM FEW100=

USA.gov is the U.S. government's official web portal to all federal, state and local government web resources and services.